Terminal Aerodrome Forecast
Issued by NWS

Home | Current Version | Previous Version | Text Only | Print | Product List | Glossary On
Versions: 1 2 3 4 5 6 7 8 9 10 11 12 13 14
176
FTUS42 TJSJ 292341
TAFKPK
TAF
TKPK 292341Z 3000/3024 07012KT P6SM VCSH FEW018
     FM301300 05016KT P6SM VCSH SCT020
     FM301600 05015G28KT P6SM VCTS SCT020CB BKN035
      AMD NOT SKED 3002/3011=

USA.gov is the U.S. government's official web portal to all federal, state and local government web resources and services.